createdAt,value
2023-02-28T00:01:26.870Z,3.200
2023-02-28T00:02:21.615Z,2.900
2023-02-28T00:03:21.575Z,3.099
2023-02-28T00:04:21.767Z,3
2023-02-28T00:05:21.999Z,3.299
2023-02-28T00:06:21.776Z,3.099
2023-02-28T00:07:21.888Z,3.400
2023-02-28T00:08:22.100Z,3.200
2023-02-28T00:09:21.680Z,3.299
2023-02-28T00:10:21.994Z,3.099
2023-02-28T00:12:21.571Z,3.200
2023-02-28T00:13:36.230Z,3.099
2023-02-28T00:14:21.252Z,3.299
2023-02-28T00:15:36.082Z,3.5
2023-02-28T00:17:21.528Z,3.299
2023-02-28T00:18:21.595Z,3.099
2023-02-28T00:19:21.478Z,3.5
2023-02-28T00:20:21.853Z,3.200
2023-02-28T00:21:21.908Z,3
2023-02-28T00:22:21.563Z,3.099
2023-02-28T00:23:21.762Z,3.400
2023-02-28T00:24:21.476Z,3.099
2023-02-28T00:25:21.746Z,3
2023-02-28T00:26:22.066Z,3.299
2023-02-28T00:27:22.424Z,3.099
2023-02-28T00:28:22.044Z,3.299
2023-02-28T00:29:22.407Z,3
2023-02-28T00:30:21.993Z,3.099
2023-02-28T00:31:21.972Z,3.400
2023-02-28T00:32:21.673Z,3.200
2023-02-28T00:35:22.293Z,3.299
2023-02-28T00:36:21.484Z,3
2023-02-28T00:37:21.509Z,3.700
2023-02-28T00:38:21.592Z,3.099
2023-02-28T00:39:21.272Z,3.200
2023-02-28T00:40:21.633Z,2.900
2023-02-28T00:41:21.382Z,3.099
2023-02-28T00:44:21.353Z,3.5
2023-02-28T00:45:22.190Z,3
2023-02-28T00:47:21.345Z,3.299
2023-02-28T00:48:21.487Z,3.099
2023-02-28T00:50:22.997Z,3.400
2023-02-28T00:52:21.767Z,3.299
2023-02-28T00:53:20.793Z,3.099
2023-02-28T00:54:21.705Z,3.400
2023-02-28T00:55:21.574Z,3.299
2023-02-28T00:56:21.069Z,3.5
2023-02-28T00:57:21.640Z,3.299
2023-02-28T00:58:20.958Z,3
2023-02-28T01:01:24.319Z,2.799
2023-02-28T01:02:21.000Z,2.900
2023-02-28T01:03:22.295Z,3.299
2023-02-28T01:04:21.308Z,3.5
2023-02-28T01:05:22.019Z,3
2023-02-28T01:06:22.090Z,3.200
2023-02-28T01:07:21.666Z,3.299
2023-02-28T01:08:21.254Z,2.799
2023-02-28T01:09:21.688Z,3
2023-02-28T01:10:21.809Z,3.099
2023-02-28T01:11:21.744Z,2.900
2023-02-28T01:12:22.058Z,3.099
2023-02-28T01:15:22.534Z,2.799
2023-02-28T01:16:21.091Z,2.599
2023-02-28T01:17:21.584Z,3.099
2023-02-28T01:18:21.658Z,3.200
2023-02-28T01:19:21.991Z,3.400
2023-02-28T01:20:21.415Z,3.200
2023-02-28T01:21:21.861Z,3.400
2023-02-28T01:22:20.975Z,3
2023-02-28T01:23:21.517Z,3.200
2023-02-28T01:25:22.257Z,3.5
2023-02-28T01:26:21.592Z,3.400
2023-02-28T01:27:22.023Z,3.200
2023-02-28T01:28:20.764Z,3.299
2023-02-28T01:29:21.316Z,3.400
2023-02-28T01:30:22.056Z,3.099
2023-02-28T01:31:21.672Z,3.299
2023-02-28T01:34:21.362Z,3.099
2023-02-28T01:35:21.480Z,3.299
2023-02-28T01:36:21.030Z,3.099
2023-02-28T01:37:20.773Z,2.900
2023-02-28T01:38:23.190Z,3.299
2023-02-28T01:39:21.348Z,3
2023-02-28T01:40:22.187Z,2.799
2023-02-28T01:41:21.452Z,3.299
2023-02-28T01:42:21.491Z,3
2023-02-28T01:43:21.965Z,3.200
2023-02-28T01:44:20.908Z,2.900
2023-02-28T01:45:22.422Z,3.400
2023-02-28T01:46:21.587Z,3.200
2023-02-28T01:47:22.080Z,3.099
2023-02-28T01:48:21.905Z,3.299
2023-02-28T01:49:21.379Z,3.099
2023-02-28T01:50:20.890Z,3
2023-02-28T01:51:22.014Z,3.299
2023-02-28T01:52:21.771Z,3.099
2023-02-28T01:53:21.738Z,3
2023-02-28T01:54:21.544Z,3.200
2023-02-28T01:55:21.384Z,3.299
2023-02-28T01:56:21.625Z,2.900
2023-02-28T01:57:21.136Z,3
2023-02-28T01:58:21.790Z,3.099
2023-02-28T01:59:21.163Z,2.900
2023-02-28T02:00:22.644Z,3.299
2023-02-28T02:01:22.593Z,3.200
2023-02-28T02:02:22.382Z,3.099
2023-02-28T02:03:21.946Z,3
2023-02-28T02:04:21.605Z,3.200
2023-02-28T02:05:22.488Z,3.099
2023-02-28T02:06:21.553Z,3
2023-02-28T02:08:21.816Z,3.099
2023-02-28T02:09:22.350Z,2.900
2023-02-28T02:10:21.889Z,3
2023-02-28T02:11:21.441Z,3.200
2023-02-28T02:12:21.801Z,3.400
2023-02-28T02:13:21.659Z,3
2023-02-28T02:14:21.526Z,3.099
2023-02-28T02:15:22.805Z,3.200
2023-02-28T02:17:21.649Z,3.099
2023-02-28T02:19:21.389Z,2.799
2023-02-28T02:20:21.424Z,2.900
2023-02-28T02:21:21.377Z,3.200
2023-02-28T02:22:22.013Z,2.700
2023-02-28T02:23:21.363Z,3
2023-02-28T02:24:21.663Z,3.299
2023-02-28T02:25:21.662Z,3.099
2023-02-28T02:26:21.406Z,3
2023-02-28T02:27:21.081Z,2.900
2023-02-28T02:28:21.535Z,3
2023-02-28T02:29:21.082Z,3.099
2023-02-28T02:31:21.626Z,3
2023-02-28T02:32:22.157Z,3.400
2023-02-28T02:33:21.351Z,3.299
2023-02-28T02:34:21.233Z,3.200
2023-02-28T02:35:20.957Z,3.299
2023-02-28T02:38:21.640Z,3.5
2023-02-28T02:39:21.399Z,3.200
2023-02-28T02:40:21.449Z,3
2023-02-28T02:41:22.007Z,3.200
2023-02-28T02:43:21.276Z,3.099
2023-02-28T02:44:20.549Z,3.299
2023-02-28T02:45:21.892Z,3.200
2023-02-28T02:47:21.379Z,3.400
2023-02-28T02:48:20.838Z,3.099
2023-02-28T02:49:21.216Z,2.799
2023-02-28T02:50:21.643Z,3.299
2023-02-28T02:51:21.068Z,2.799
2023-02-28T02:52:22.216Z,3
2023-02-28T02:54:21.772Z,3.200
2023-02-28T02:55:21.182Z,3.099
2023-02-28T02:56:21.127Z,3.200
2023-02-28T02:57:21.198Z,2.799
2023-02-28T02:58:20.637Z,3
2023-02-28T02:59:21.461Z,3.299
2023-02-28T03:01:21.702Z,2.799
2023-02-28T03:03:21.741Z,3
2023-02-28T03:04:20.995Z,3.200
2023-02-28T03:05:21.912Z,3.299
2023-02-28T03:06:21.301Z,3
2023-02-28T03:07:21.165Z,3.099
2023-02-28T03:08:21.399Z,4.300
2023-02-28T03:09:21.481Z,4
2023-02-28T03:10:21.923Z,5.199
2023-02-28T03:11:21.546Z,5
2023-02-28T03:12:21.383Z,5.900
2023-02-28T03:13:21.905Z,5.699
2023-02-28T03:15:21.623Z,5.5
2023-02-28T03:17:21.527Z,5.099
2023-02-28T03:18:21.639Z,5.300
2023-02-28T03:19:21.576Z,5.699
2023-02-28T03:20:22.039Z,5.400
2023-02-28T03:21:21.936Z,6.099
2023-02-28T03:22:22.277Z,6
2023-02-28T03:23:21.834Z,6.599
2023-02-28T03:24:21.790Z,6.699
2023-02-28T03:25:21.851Z,6.900
2023-02-28T03:26:21.489Z,6.800
2023-02-28T03:27:21.857Z,6.400
2023-02-28T03:28:21.390Z,6.5
2023-02-28T03:29:22.043Z,5.800
2023-02-28T03:30:21.710Z,5.599
2023-02-28T03:31:21.724Z,5.400
2023-02-28T03:32:21.719Z,4.800
2023-02-28T03:33:21.365Z,4.599
2023-02-28T03:34:21.975Z,4.699
2023-02-28T03:35:21.532Z,4.400
2023-02-28T03:36:21.874Z,4
2023-02-28T03:37:21.970Z,3.900
2023-02-28T03:38:21.378Z,3.799
2023-02-28T03:39:22.023Z,3.599
2023-02-28T03:40:21.755Z,3.099
2023-02-28T03:41:22.211Z,3.5
2023-02-28T03:42:21.952Z,3.400
2023-02-28T03:43:22.166Z,3.200
2023-02-28T03:44:22.018Z,3.099
2023-02-28T03:48:21.268Z,3.299
2023-02-28T03:49:21.614Z,3.200
2023-02-28T03:50:22.386Z,3.099
2023-02-28T03:51:22.536Z,3.200
2023-02-28T03:52:22.148Z,3.299
2023-02-28T03:53:22.349Z,3
2023-02-28T03:54:21.820Z,3.200
2023-02-28T03:55:22.117Z,2.900
2023-02-28T03:56:22.042Z,3.299
2023-02-28T03:57:21.470Z,2.700
2023-02-28T03:59:21.727Z,3
2023-02-28T04:03:22.475Z,3.299
2023-02-28T04:04:22.450Z,3
2023-02-28T04:05:21.617Z,3.099
2023-02-28T04:06:22.318Z,3.400
2023-02-28T04:07:22.349Z,3.200
2023-02-28T04:08:22.288Z,3
2023-02-28T04:10:22.845Z,3.299
2023-02-28T04:11:21.296Z,2.900
2023-02-28T04:12:22.500Z,2.799
2023-02-28T04:13:21.796Z,3.200
2023-02-28T04:15:22.523Z,3.299
2023-02-28T04:16:34.536Z,3
2023-02-28T04:17:21.616Z,2.900
2023-02-28T04:18:22.057Z,3
2023-02-28T04:21:22.033Z,2.900
2023-02-28T04:22:22.136Z,3.099
2023-02-28T04:23:22.134Z,3
2023-02-28T04:24:22.393Z,2.700
2023-02-28T04:25:22.345Z,3
2023-02-28T04:26:22.166Z,2.799
2023-02-28T04:28:21.923Z,3
2023-02-28T04:29:22.436Z,3.099
2023-02-28T04:30:22.669Z,3
2023-02-28T04:31:22.251Z,2.900
2023-02-28T04:32:21.965Z,3
2023-02-28T04:33:21.958Z,3.099
2023-02-28T04:35:21.812Z,3
2023-02-28T04:36:21.963Z,3.200
2023-02-28T04:37:22.006Z,2.799
2023-02-28T04:38:21.984Z,3.099
2023-02-28T04:39:21.881Z,3
2023-02-28T04:40:23.018Z,3.200
2023-02-28T04:42:22.467Z,2.900
2023-02-28T04:43:21.940Z,3.200
2023-02-28T04:44:21.723Z,3.099
2023-02-28T04:45:22.757Z,3
2023-02-28T04:47:22.380Z,3.200
2023-02-28T04:48:22.450Z,3.099
2023-02-28T04:49:22.246Z,2.799
2023-02-28T04:50:21.826Z,3.099
2023-02-28T04:51:21.884Z,3.400
2023-02-28T04:52:22.320Z,3.200
2023-02-28T04:53:21.408Z,2.599
2023-02-28T04:54:21.788Z,2.799
2023-02-28T04:55:21.708Z,3.099
2023-02-28T04:57:22.155Z,2.900
2023-02-28T04:58:22.239Z,3
2023-02-28T05:01:22.725Z,2.900
2023-02-28T05:03:21.997Z,3.200
2023-02-28T05:04:21.727Z,2.900
2023-02-28T05:05:22.176Z,3.099
2023-02-28T05:06:21.642Z,3
2023-02-28T05:07:22.819Z,3.200
2023-02-28T05:08:22.084Z,3
2023-02-28T05:09:22.155Z,2.700
2023-02-28T05:10:22.122Z,3
2023-02-28T05:11:22.562Z,2.900
2023-02-28T05:13:22.183Z,3.099
2023-02-28T05:14:22.032Z,3.200
2023-02-28T05:15:22.585Z,3.299
2023-02-28T05:16:22.327Z,3
2023-02-28T05:20:22.239Z,3.200
2023-02-28T05:21:22.667Z,3
2023-02-28T05:22:22.135Z,3.299
2023-02-28T05:23:22.175Z,3.099
2023-02-28T05:24:22.064Z,3
2023-02-28T05:25:22.443Z,3.099
2023-02-28T05:26:22.132Z,3.5
2023-02-28T05:27:22.138Z,3.299
2023-02-28T05:28:22.182Z,2.900
2023-02-28T05:31:22.378Z,3
2023-02-28T05:32:23.143Z,3.099
2023-02-28T05:33:21.970Z,3.200
2023-02-28T05:34:21.983Z,2.900
2023-02-28T05:35:22.278Z,3.299
2023-02-28T05:36:22.550Z,3.200
2023-02-28T05:38:22.129Z,3.099
2023-02-28T05:40:21.618Z,3.299
2023-02-28T05:41:22.162Z,2.900
2023-02-28T05:42:21.913Z,3.200
2023-02-28T05:45:22.884Z,3
2023-02-28T05:46:21.923Z,2.900
2023-02-28T05:47:21.901Z,2.799
2023-02-28T05:48:22.367Z,3.099
2023-02-28T05:49:22.031Z,3.299
2023-02-28T05:50:22.155Z,2.700
2023-02-28T05:51:22.268Z,2.799
2023-02-28T05:52:21.899Z,2.900
2023-02-28T05:53:22.259Z,2.799
2023-02-28T05:54:22.181Z,3.099
2023-02-28T05:55:21.615Z,2.799
2023-02-28T05:56:22.190Z,2.599
2023-02-28T05:57:24.724Z,3.200
2023-02-28T05:58:22.001Z,3
2023-02-28T05:59:22.332Z,2.900
2023-02-28T06:01:22.652Z,3.099
2023-02-28T06:02:21.535Z,2.900
2023-02-28T06:03:21.620Z,3
2023-02-28T06:04:31.621Z,3.099
2023-02-28T06:05:23.195Z,3.200
2023-02-28T06:06:22.888Z,2.900
2023-02-28T06:07:22.205Z,3.200
2023-02-28T06:08:22.218Z,2.900
2023-02-28T06:09:22.224Z,3.099
2023-02-28T06:10:21.897Z,2.900
2023-02-28T06:11:22.425Z,3
2023-02-28T06:12:22.517Z,3.400
2023-02-28T06:13:23.490Z,3
2023-02-28T06:14:21.889Z,3.200
2023-02-28T06:15:23.074Z,3.099
2023-02-28T06:16:22.069Z,3.400
2023-02-28T06:17:21.957Z,3.099
2023-02-28T06:18:21.823Z,3
2023-02-28T06:19:22.650Z,3.099
2023-02-28T06:20:22.188Z,3.299
2023-02-28T06:21:22.856Z,3.200
2023-02-28T06:22:21.574Z,3.299
2023-02-28T06:23:22.132Z,3.200
2023-02-28T06:24:21.735Z,3
2023-02-28T06:25:22.498Z,3.299
2023-02-28T06:26:22.892Z,3.5
2023-02-28T06:27:22.248Z,3.099
2023-02-28T06:28:22.581Z,3.299
2023-02-28T06:29:22.775Z,3.700
2023-02-28T06:31:22.476Z,3.299
2023-02-28T06:32:22.155Z,3.099
2023-02-28T06:34:22.481Z,2.900
2023-02-28T06:35:36.821Z,3.299
2023-02-28T06:36:21.966Z,3.200
2023-02-28T06:37:22.000Z,3.5
2023-02-28T06:38:22.077Z,3.200
2023-02-28T06:39:22.689Z,3.400
2023-02-28T06:40:23.232Z,3.200
2023-02-28T06:41:22.679Z,3.400
2023-02-28T06:42:22.667Z,3.099
2023-02-28T06:43:22.677Z,3.400
2023-02-28T06:44:22.015Z,2.900
2023-02-28T06:45:22.355Z,3.299
2023-02-28T06:46:22.924Z,3.099
2023-02-28T06:47:22.706Z,3.299
2023-02-28T06:48:22.573Z,3.599
2023-02-28T06:49:22.176Z,3
2023-02-28T06:50:23.050Z,3.099
2023-02-28T06:51:22.444Z,3.299
2023-02-28T06:53:22.218Z,3.5
2023-02-28T06:54:22.802Z,3.200
2023-02-28T06:55:22.629Z,3.400
2023-02-28T06:56:22.154Z,3.099
2023-02-28T06:57:22.664Z,3.400
2023-02-28T06:58:22.728Z,3.299
2023-02-28T06:59:23.898Z,3.099
2023-02-28T07:00:25.326Z,3.200
2023-02-28T07:01:23.303Z,3.299
2023-02-28T07:02:23.425Z,3
2023-02-28T07:03:23.074Z,3.400
2023-02-28T07:04:23.101Z,3.299
2023-02-28T07:05:22.168Z,3.599
2023-02-28T07:06:22.727Z,3.400
2023-02-28T07:07:22.345Z,3.299
2023-02-28T07:08:21.975Z,3.599
2023-02-28T07:09:22.504Z,3.400
2023-02-28T07:10:22.783Z,3.599
2023-02-28T07:11:22.354Z,3.5
2023-02-28T07:12:22.871Z,3.599
2023-02-28T07:13:23.098Z,3.299
2023-02-28T07:16:22.745Z,3.5
2023-02-28T07:18:28.287Z,3.299
2023-02-28T07:19:23.214Z,3.5
2023-02-28T07:21:23.231Z,3.299
2023-02-28T07:22:23.954Z,3.900
2023-02-28T07:23:23.091Z,3.5
2023-02-28T07:24:22.693Z,3.799
2023-02-28T07:25:23.142Z,3.599
2023-02-28T07:26:23.325Z,3.799
2023-02-28T07:27:22.601Z,3.599
2023-02-28T07:29:23.184Z,3.799
2023-02-28T07:30:22.758Z,4.099
2023-02-28T07:31:23.648Z,4
2023-02-28T07:32:22.845Z,3.900
2023-02-28T07:33:22.920Z,4.300
2023-02-28T07:34:22.491Z,4
2023-02-28T07:35:22.777Z,3.900
2023-02-28T07:36:23.581Z,3.700
2023-02-28T07:37:23.114Z,3.799
2023-02-28T07:38:36.326Z,4
2023-02-28T07:39:22.407Z,3.799
2023-02-28T07:40:23.443Z,3.700
2023-02-28T07:41:22.676Z,3.799
2023-02-28T07:42:23.680Z,3.900
2023-02-28T07:43:23.333Z,4
2023-02-28T07:44:22.876Z,3.599
2023-02-28T07:45:22.726Z,3.5
2023-02-28T07:46:22.670Z,3.599
2023-02-28T07:47:25.337Z,3.700
2023-02-28T07:49:22.351Z,3.299
2023-02-28T07:50:22.832Z,3.700
2023-02-28T07:51:22.770Z,3.799
2023-02-28T07:52:41.968Z,3.700
2023-02-28T07:53:23.196Z,5
2023-02-28T07:54:22.584Z,4.699
2023-02-28T07:55:22.939Z,4.400
2023-02-28T07:56:22.432Z,4.699
2023-02-28T07:57:22.644Z,4.400
2023-02-28T07:58:22.950Z,4.699
2023-02-28T07:59:22.645Z,4.099
2023-02-28T08:00:46.684Z,4.800
2023-02-28T08:02:26.252Z,4.199
2023-02-28T08:04:22.716Z,4.400
2023-02-28T08:05:23.122Z,4.300
2023-02-28T08:06:22.656Z,4.099
2023-02-28T08:08:23.383Z,3.799
2023-02-28T08:09:22.593Z,4.099
2023-02-28T08:10:23.716Z,3.799
2023-02-28T08:11:23.171Z,3.700
2023-02-28T08:12:22.721Z,3.900
2023-02-28T08:13:22.767Z,3.700
2023-02-28T08:14:23.156Z,3.799
2023-02-28T08:15:23.097Z,3.700
2023-02-28T08:17:23.021Z,3.900
2023-02-28T08:18:22.423Z,4.199
2023-02-28T08:20:23.112Z,4.099
2023-02-28T08:21:23.031Z,4
2023-02-28T08:22:23.334Z,3.900
2023-02-28T08:23:22.715Z,3.700
2023-02-28T08:24:22.832Z,3.599
2023-02-28T08:25:22.379Z,3.5
2023-02-28T08:26:23.094Z,3.700
2023-02-28T08:27:22.162Z,3.5
2023-02-28T08:29:23.034Z,3.299
2023-02-28T08:31:23.446Z,3.400
2023-02-28T08:34:22.125Z,3
2023-02-28T08:35:22.890Z,3.400
2023-02-28T08:36:22.879Z,3.099
2023-02-28T08:37:22.470Z,3.400
2023-02-28T08:39:23.400Z,3.5
2023-02-28T08:40:23.410Z,3.299
2023-02-28T08:41:22.986Z,3.200
2023-02-28T08:42:23.256Z,3
2023-02-28T08:43:22.884Z,3.200
2023-02-28T08:44:22.740Z,3
2023-02-28T08:45:22.714Z,3.400
2023-02-28T08:46:22.783Z,2.900
2023-02-28T08:48:22.817Z,3.200
2023-02-28T08:49:22.326Z,2.900
2023-02-28T08:50:22.797Z,3
2023-02-28T08:51:22.476Z,3.299
2023-02-28T08:52:27.576Z,3.400
2023-02-28T08:53:23.667Z,3.200
2023-02-28T08:54:22.148Z,3.299
2023-02-28T08:55:23.251Z,2.900
2023-02-28T08:56:23.886Z,3.299
2023-02-28T08:57:23.660Z,3
2023-02-28T08:58:22.987Z,3.099
2023-02-28T08:59:22.949Z,2.799
2023-02-28T09:00:24.403Z,3
2023-02-28T09:02:22.939Z,3.099
2023-02-28T09:04:25.177Z,3.200
2023-02-28T09:05:23.142Z,2.900
2023-02-28T09:06:23.216Z,3.200
2023-02-28T09:08:22.953Z,3.299
2023-02-28T09:09:23.298Z,2.799
2023-02-28T09:10:23.840Z,3.299
2023-02-28T09:11:23.003Z,3.200
2023-02-28T09:12:23.681Z,3.099
2023-02-28T09:13:23.950Z,2.799
2023-02-28T09:14:22.865Z,3
2023-02-28T09:15:23.699Z,2.799
2023-02-28T09:16:23.193Z,2.900
2023-02-28T09:17:23.250Z,3.200
2023-02-28T09:18:23.671Z,2.900
2023-02-28T09:19:22.961Z,3
2023-02-28T09:21:23.539Z,3.299
2023-02-28T09:22:23.058Z,3.099
2023-02-28T09:24:22.414Z,2.900
2023-02-28T09:25:23.729Z,3.400
2023-02-28T09:26:23.081Z,3.200
2023-02-28T09:27:22.577Z,3.700
2023-02-28T09:28:23.141Z,3.200
2023-02-28T09:29:22.057Z,3.400
2023-02-28T09:30:23.001Z,3
2023-02-28T09:31:22.749Z,3.099
2023-02-28T09:33:23.104Z,2.799
2023-02-28T09:35:23.232Z,3
2023-02-28T09:36:24.850Z,2.700
2023-02-28T09:37:23.043Z,3
2023-02-28T09:38:23.269Z,2.799
2023-02-28T09:39:22.825Z,2.900
2023-02-28T09:40:22.563Z,3.099
2023-02-28T09:41:22.997Z,3
2023-02-28T09:42:23.119Z,2.900
2023-02-28T09:43:23.611Z,2.700
2023-02-28T09:44:22.472Z,2.599
2023-02-28T09:45:28.592Z,2.700
2023-02-28T09:47:23.288Z,2.599
2023-02-28T09:48:22.138Z,2.400
2023-02-28T09:49:30.539Z,2.599
2023-02-28T09:51:22.612Z,2.400
2023-02-28T09:52:23.224Z,2.5
2023-02-28T09:54:23.172Z,2.299
2023-02-28T09:56:22.454Z,2.400
2023-02-28T09:58:23.163Z,2.299
2023-02-28T09:59:22.550Z,2.700
2023-02-28T10:00:24.100Z,2.599
2023-02-28T10:01:37.583Z,2.400
2023-02-28T10:02:23.063Z,2.299
2023-02-28T10:03:22.984Z,2.5
2023-02-28T10:04:23.322Z,2.299
2023-02-28T10:06:23.223Z,2.400
2023-02-28T10:07:23.356Z,2.299
2023-02-28T10:08:22.404Z,2.400
2023-02-28T10:09:22.906Z,2.099
2023-02-28T10:10:22.855Z,2.299
2023-02-28T10:11:22.838Z,2.5
2023-02-28T10:12:23.016Z,2.299
2023-02-28T10:13:23.076Z,2.5
2023-02-28T10:15:23.610Z,2.099
2023-02-28T10:16:22.567Z,2.299
2023-02-28T10:17:22.831Z,2.200
2023-02-28T10:18:22.460Z,2.400
2023-02-28T10:19:23.177Z,2.299
2023-02-28T10:20:23.137Z,2.200
2023-02-28T10:21:44.896Z,2.599
2023-02-28T10:22:23.289Z,2.099
2023-02-28T10:23:22.419Z,2.200
2023-02-28T10:25:22.546Z,2.099
2023-02-28T10:26:23.491Z,2.299
2023-02-28T10:27:22.938Z,2.200
2023-02-28T10:28:22.760Z,2.5
2023-02-28T10:29:23.012Z,2.200
2023-02-28T10:30:23.128Z,2.400
2023-02-28T10:34:22.867Z,2.099
2023-02-28T10:36:25.400Z,2.200
2023-02-28T10:40:25.144Z,2.400
2023-02-28T10:41:22.822Z,2.200
2023-02-28T10:42:23.565Z,2.5
2023-02-28T10:43:22.794Z,2.299
2023-02-28T10:44:22.720Z,2.5
2023-02-28T10:45:24.017Z,2.099
2023-02-28T10:46:22.782Z,2.400
2023-02-28T10:48:23.468Z,2.299
2023-02-28T10:49:23.277Z,2.400
2023-02-28T10:50:23.072Z,2.299
2023-02-28T10:51:23.851Z,2.400
2023-02-28T10:52:23.039Z,2.299
2023-02-28T10:53:23.149Z,2.599
2023-02-28T10:55:23.676Z,2.299
2023-02-28T10:56:22.847Z,2.599
2023-02-28T10:57:23.083Z,2.400
2023-02-28T10:58:23.716Z,2.5
2023-02-28T10:59:23.528Z,2.299
2023-02-28T11:01:23.124Z,2.400
2023-02-28T11:05:25.744Z,2.5
2023-02-28T11:08:24.747Z,2.400
2023-02-28T11:09:22.873Z,2.200
2023-02-28T11:10:24.022Z,2.599
2023-02-28T11:11:22.857Z,2.400
2023-02-28T11:13:22.721Z,2.299
2023-02-28T11:14:22.885Z,2.5
2023-02-28T11:16:22.903Z,2.200
2023-02-28T11:17:23.656Z,2.299
2023-02-28T11:18:23.131Z,2.200
2023-02-28T11:19:23.278Z,2.400
2023-02-28T11:20:23.943Z,2.299
2023-02-28T11:23:23.389Z,2.599
2023-02-28T11:25:23.970Z,2.400
2023-02-28T11:27:23.076Z,2.299
2023-02-28T11:29:23.489Z,2.5
2023-02-28T11:30:24.115Z,2.599
2023-02-28T11:32:23.347Z,2.5
2023-02-28T11:33:23.762Z,2.099
2023-02-28T11:34:24.014Z,2.299
2023-02-28T11:35:23.749Z,2.700
2023-02-28T11:36:24.501Z,2.5
2023-02-28T11:37:24.353Z,2.400
2023-02-28T11:38:23.121Z,2.599
2023-02-28T11:39:23.972Z,2.400
2023-02-28T11:40:23.881Z,2.5
2023-02-28T11:41:23.529Z,2.400
2023-02-28T11:42:23.356Z,2.299
2023-02-28T11:43:23.860Z,2.599
2023-02-28T11:44:23.077Z,2.5
2023-02-28T11:45:23.098Z,2.299
2023-02-28T11:46:23.513Z,2.5
2023-02-28T11:48:24.345Z,2.299
2023-02-28T11:49:23.585Z,2.599
2023-02-28T11:50:23.918Z,2.400
2023-02-28T11:52:24.054Z,2.5
2023-02-28T11:53:23.643Z,2.400
2023-02-28T11:55:23.882Z,2
2023-02-28T11:56:23.195Z,2.099
2023-02-28T11:57:23.480Z,2.5
2023-02-28T11:58:23.928Z,2.400
2023-02-28T11:59:23.869Z,2.799
2023-02-28T12:00:27.769Z,2.700
2023-02-28T12:01:24.588Z,2.5
2023-02-28T12:02:28.477Z,2.400
2023-02-28T12:03:23.997Z,2.200
2023-02-28T12:04:28.837Z,2.5
2023-02-28T12:05:24.929Z,2.299
2023-02-28T12:06:24.234Z,2.200
2023-02-28T12:07:23.664Z,2.5
2023-02-28T12:08:28.655Z,2.400
2023-02-28T12:10:28.930Z,2.200
2023-02-28T12:11:23.824Z,2.400
2023-02-28T12:12:28.754Z,2.200
2023-02-28T12:13:23.469Z,2.299
2023-02-28T12:14:23.917Z,2.400
2023-02-28T12:15:23.894Z,2.5
2023-02-28T12:16:24.834Z,2.400
2023-02-28T12:17:23.835Z,2.200
2023-02-28T12:19:23.818Z,2.400
2023-02-28T12:20:23.594Z,2.299
2023-02-28T12:21:23.566Z,2.700
2023-02-28T12:22:32.384Z,2.400
2023-02-28T12:23:23.710Z,2.299
2023-02-28T12:24:23.554Z,2.5
2023-02-28T12:25:24.403Z,2.400
2023-02-28T12:27:25.300Z,2.5
2023-02-28T12:28:23.254Z,2.400
2023-02-28T12:29:24.128Z,2.599
2023-02-28T12:30:23.586Z,2.400
2023-02-28T12:31:23.885Z,2.5
2023-02-28T12:33:23.126Z,2.599
2023-02-28T12:34:23.332Z,2.099
2023-02-28T12:35:23.946Z,2.299
2023-02-28T12:36:41.838Z,2.5
2023-02-28T12:37:23.177Z,2.400
2023-02-28T12:38:23.643Z,2.299
2023-02-28T12:39:24.122Z,2.5
2023-02-28T12:40:22.806Z,2.200
2023-02-28T12:41:23.529Z,2.599
2023-02-28T12:42:23.246Z,2.400
2023-02-28T12:43:23.292Z,2.299
2023-02-28T12:45:24.559Z,2.200
2023-02-28T12:46:23.908Z,2.400
2023-02-28T12:49:23.882Z,2.5
2023-02-28T12:50:23.985Z,2.099
2023-02-28T12:51:23.177Z,2.400
2023-02-28T12:52:23.486Z,2.200
2023-02-28T12:53:23.991Z,2.400
2023-02-28T12:54:24.401Z,2.299
2023-02-28T12:55:23.946Z,2.400
2023-02-28T12:56:23.647Z,2.200
2023-02-28T12:57:24.418Z,2.5
2023-02-28T12:58:24.340Z,2.400
2023-02-28T12:59:24.108Z,2.200
2023-02-28T13:01:28.741Z,2.400
2023-02-28T13:02:24.648Z,2.200
2023-02-28T13:03:23.931Z,2.400
2023-02-28T13:04:24.653Z,2.299
2023-02-28T13:05:23.626Z,2.400
2023-02-28T13:08:23.101Z,2.200
2023-02-28T13:09:23.112Z,2.400
2023-02-28T13:12:23.803Z,2.599
2023-02-28T13:13:24.159Z,2.400
2023-02-28T13:15:27.972Z,2.200
2023-02-28T13:16:23.333Z,2.400
2023-02-28T13:17:23.331Z,2.5
2023-02-28T13:18:23.710Z,2.200
2023-02-28T13:19:24.186Z,2.599
2023-02-28T13:20:24.221Z,2.5
2023-02-28T13:22:24.332Z,2.599
2023-02-28T13:23:23.714Z,2.400
2023-02-28T13:24:24.132Z,2.5
2023-02-28T13:26:23.749Z,2.599
2023-02-28T13:27:24.126Z,2.299
2023-02-28T13:28:23.347Z,2.400
2023-02-28T13:29:23.253Z,2.5
2023-02-28T13:30:23.697Z,2.400
2023-02-28T13:32:23.639Z,2.299
2023-02-28T13:34:23.169Z,2.5
2023-02-28T13:35:24.290Z,2.599
2023-02-28T13:37:23.895Z,2.400
2023-02-28T13:38:23.481Z,2.299
2023-02-28T13:39:22.869Z,2.5
2023-02-28T13:40:23.379Z,2.400
2023-02-28T13:41:23.478Z,2.299
2023-02-28T13:42:34.402Z,2.5
2023-02-28T13:44:23.888Z,2.799
2023-02-28T13:45:25.936Z,2.900
2023-02-28T13:46:31.717Z,3
2023-02-28T13:47:24.509Z,2.799
2023-02-28T13:48:31.112Z,2.599
2023-02-28T13:49:23.332Z,2.400
2023-02-28T13:54:37.438Z,2.599
2023-02-28T13:55:23.978Z,2.700
2023-02-28T13:56:37.559Z,2.400
2023-02-28T13:58:37.587Z,2.5
2023-02-28T13:59:23.419Z,2.299
2023-02-28T14:00:39.505Z,2.5
2023-02-28T14:01:26.743Z,2.599
2023-02-28T14:02:37.982Z,2.799
2023-02-28T14:03:24.132Z,2.5
2023-02-28T14:05:23.867Z,2.400
2023-02-28T14:06:37.816Z,2.599
2023-02-28T14:07:23.434Z,2.400
2023-02-28T14:08:37.733Z,2.799
2023-02-28T14:12:24.442Z,3.299
2023-02-28T14:13:23.355Z,3.200
2023-02-28T14:14:42.299Z,2.799
2023-02-28T14:15:24.276Z,2.700
2023-02-28T14:16:42.092Z,2.599
2023-02-28T14:17:23.342Z,2.400
2023-02-28T14:18:41.898Z,2.700
2023-02-28T14:19:22.884Z,2.599
2023-02-28T14:20:45.254Z,2.700
2023-02-28T14:21:23.132Z,2.799
2023-02-28T14:22:45.622Z,2.700
2023-02-28T14:23:22.650Z,2.400
2023-02-28T14:24:22.881Z,2.599
2023-02-28T14:25:23.292Z,2.700
2023-02-28T14:27:25.478Z,2.599
2023-02-28T14:28:23.039Z,2.900
2023-02-28T14:29:22.776Z,2.400
2023-02-28T14:31:25.062Z,2.700
2023-02-28T14:32:22.811Z,2.5
2023-02-28T14:33:22.737Z,2.700
2023-02-28T14:35:26.375Z,2.599
2023-02-28T14:36:22.348Z,2.700
2023-02-28T14:38:22.419Z,3
2023-02-28T14:39:22.665Z,2.900
2023-02-28T14:40:22.867Z,3.099
2023-02-28T14:43:24.867Z,2.900
2023-02-28T14:45:22.957Z,2.799
2023-02-28T14:46:22.806Z,2.700
2023-02-28T14:47:22.717Z,2.5
2023-02-28T14:48:25.137Z,2.599
2023-02-28T14:49:23.415Z,2.700
2023-02-28T14:50:22.487Z,2.400
2023-02-28T14:51:23.295Z,2.700
2023-02-28T14:52:22.894Z,2.900
2023-02-28T14:53:22.311Z,2.700
2023-02-28T14:54:22.438Z,2.5
2023-02-28T14:55:22.539Z,2.700
2023-02-28T14:57:25.251Z,2.900
2023-02-28T14:58:22.994Z,2.700
2023-02-28T14:59:24.527Z,2.599
2023-02-28T15:00:23.874Z,2.799
2023-02-28T15:01:23.702Z,2.5
2023-02-28T15:02:22.783Z,2.700
2023-02-28T15:03:22.960Z,2.5
2023-02-28T15:04:23.217Z,3
2023-02-28T15:05:23.390Z,2.700
2023-02-28T15:07:22.848Z,2.5
2023-02-28T15:08:23.363Z,2.599
2023-02-28T15:09:23.400Z,3
2023-02-28T15:10:23.685Z,2.5
2023-02-28T15:11:23.159Z,2.700
2023-02-28T15:12:22.473Z,2.599
2023-02-28T15:13:23.332Z,3
2023-02-28T15:14:22.884Z,2.700
2023-02-28T15:16:23.087Z,2.799
2023-02-28T15:17:22.937Z,2.599
2023-02-28T15:18:22.891Z,2.900
2023-02-28T15:19:23.098Z,2.799
2023-02-28T15:20:23.581Z,2.599
2023-02-28T15:21:23.775Z,2.900
2023-02-28T15:22:23.532Z,2.599
2023-02-28T15:23:22.510Z,2.799
2023-02-28T15:24:23.093Z,3
2023-02-28T15:25:23.289Z,2.799
2023-02-28T15:27:22.828Z,3.099
2023-02-28T15:28:22.686Z,3
2023-02-28T15:29:22.560Z,2.900
2023-02-28T15:31:23.595Z,2.799
2023-02-28T15:32:23.056Z,2.900
2023-02-28T15:35:23.625Z,2.700
2023-02-28T15:36:22.676Z,3.099
2023-02-28T15:37:23.031Z,2.799
2023-02-28T15:38:22.552Z,2.900
2023-02-28T15:39:22.824Z,3.200
2023-02-28T15:40:23.150Z,2.700
2023-02-28T15:41:22.327Z,3.099
2023-02-28T15:43:24.504Z,3.200
2023-02-28T15:44:22.766Z,3.299
2023-02-28T15:45:22.710Z,3.099
2023-02-28T15:46:23.055Z,2.799
2023-02-28T15:47:23.143Z,3
2023-02-28T15:48:22.996Z,3.200
2023-02-28T15:49:22.451Z,3
2023-02-28T15:50:22.841Z,3.099
2023-02-28T15:51:23.547Z,3.200
2023-02-28T15:52:22.804Z,2.799